Terminal Aerodrome Forecast
Issued by NWS

Home | Current Version | Previous Version | Text Only | Print | Product List | Glossary On
Versions: 1 2 3 4 5 6 7 8 9 10 11 12 13 14 15 16
000
FTAK31 PAFA 290522
TAFAFA
TAF
PAFA 290522Z 2906/3012 33003KT P6SM FEW080 BKN110
     FM291600 14004KT P6SM SCT080 SCT120 BKN250
     FM292000 22008G14KT P6SM SCT120 BKN250=

USA.gov is the U.S. government's official web portal to all federal, state and local government web resources and services.